MKJP/KIN METAR and TAF weather

Enter ICAO airport designator
Station Type Date Time Source
MKJP METAR 2021/08/05 03:00 UTC NOAA

MKJP 050300Z 10013KT 9999 FEW022 29/23 Q1017


Station Type Date Time Source
MKJP Decoded METAR 2021/08/05 03:00 UTC NOAA

Kingston / Norman Manley, Jamaica (MKJP) 17-56N 076-47W 14M
Aug 04, 2021 - 11:00 PM EDT / 2021.08.05 0300 UTC
Wind: from the E (100 degrees) at 15 MPH (13 KT):0
Visibility: greater than 7 mile(s):0
Sky conditions: mostly clear
Temperature: 84 F (29 C)
Dew Point: 73 F (23 C)
Relative Humidity: 70%
Pressure (altimeter): 30.03 in. Hg (1017 hPa)
ob: MKJP 050300Z 10013KT 9999 FEW022 29/23 Q1017
cycle: 3

Station Type Date Time Source
MKJP TAF 2021/08/04 18:15 UTC NOAA

TAF MKJP 041715Z 0418/0518 14019KT 9999 FEW022
BECMG 0500/0502 35005KT
BECMG 0513/0515 14020KT

Example: see airport list